Salt Lake City, Utah
Traffic Map
Current Weather Conditions
Salt Lake City, Utah
Overcast Light Rain
Overcast
39°
Feels Like: 33°
Wind Chill: 33° Ceiling: 2200
Heat Index: 39° Visibility: 6mi
Dew Point: 38° Wind: 8mph
Humidity: 96% Direction: 170° (S)
Pressure: 30in Gusts: 0mph
Raw Report DataKSLC 221218Z 17007KT 6SM -RA BR FEW007 BKN022 OVC032 04/03 A3000 RMK AO2 P0001 T00390033 $
Traffic Incident Summary
Active as of:
Severity:
Category:
InformationThere was an issue retrieving the traffic information for this location. Please try a different location or try again shortly.
Advertisements
Track Severe Weather on mobile